sensor_id;sensor_type;location;lat;lon;timestamp;P1;durP1;ratioP1;P2;durP2;ratioP2
43363;SDS011;40636;52.424;-1.948;2023-02-18T00:01:27;2.85;;;2.03;;
43363;SDS011;40636;52.424;-1.948;2023-02-18T00:03:56;2.85;;;1.92;;
43363;SDS011;40636;52.424;-1.948;2023-02-18T00:06:28;2.13;;;1.65;;
43363;SDS011;40636;52.424;-1.948;2023-02-18T00:08:56;2.42;;;1.90;;
43363;SDS011;40636;52.424;-1.948;2023-02-18T00:11:28;2.22;;;1.52;;
43363;SDS011;40636;52.424;-1.948;2023-02-18T00:13:57;2.60;;;1.95;;
43363;SDS011;40636;52.424;-1.948;2023-02-18T00:16:28;2.17;;;1.73;;
43363;SDS011;40636;52.424;-1.948;2023-02-18T00:18:56;2.28;;;1.90;;
43363;SDS011;40636;52.424;-1.948;2023-02-18T00:21:25;1.98;;;1.30;;
43363;SDS011;40636;52.424;-1.948;2023-02-18T00:23:52;1.45;;;1.10;;
43363;SDS011;40636;52.424;-1.948;2023-02-18T00:26:19;1.92;;;1.58;;
43363;SDS011;40636;52.424;-1.948;2023-02-18T00:28:46;2.75;;;1.20;;
43363;SDS011;40636;52.424;-1.948;2023-02-18T00:31:16;1.25;;;1.10;;
43363;SDS011;40636;52.424;-1.948;2023-02-18T00:33:56;2.03;;;1.63;;
43363;SDS011;40636;52.424;-1.948;2023-02-18T00:36:23;1.35;;;1.10;;
43363;SDS011;40636;52.424;-1.948;2023-02-18T00:38:52;1.10;;;1.00;;
43363;SDS011;40636;52.424;-1.948;2023-02-18T00:41:21;1.45;;;0.70;;
43363;SDS011;40636;52.424;-1.948;2023-02-18T00:43:48;3.20;;;0.85;;
43363;SDS011;40636;52.424;-1.948;2023-02-18T00:46:15;0.63;;;0.50;;
43363;SDS011;40636;52.424;-1.948;2023-02-18T00:48:42;0.73;;;0.60;;
43363;SDS011;40636;52.424;-1.948;2023-02-18T00:51:09;0.30;;;0.30;;
43363;SDS011;40636;52.424;-1.948;2023-02-18T00:53:37;0.65;;;0.30;;
43363;SDS011;40636;52.424;-1.948;2023-02-18T00:56:05;0.93;;;0.50;;
43363;SDS011;40636;52.424;-1.948;2023-02-18T00:58:33;0.95;;;0.70;;
43363;SDS011;40636;52.424;-1.948;2023-02-18T01:01:00;0.50;;;0.50;;
43363;SDS011;40636;52.424;-1.948;2023-02-18T01:03:27;1.48;;;0.52;;
43363;SDS011;40636;52.424;-1.948;2023-02-18T01:05:54;1.25;;;0.68;;
43363;SDS011;40636;52.424;-1.948;2023-02-18T01:08:21;0.45;;;0.45;;
43363;SDS011;40636;52.424;-1.948;2023-02-18T01:10:49;2.75;;;0.60;;
43363;SDS011;40636;52.424;-1.948;2023-02-18T01:13:18;0.57;;;0.57;;
43363;SDS011;40636;52.424;-1.948;2023-02-18T01:15:45;3.00;;;0.68;;
43363;SDS011;40636;52.424;-1.948;2023-02-18T01:18:12;1.80;;;0.70;;
43363;SDS011;40636;52.424;-1.948;2023-02-18T01:20:40;1.00;;;1.00;;
43363;SDS011;40636;52.424;-1.948;2023-02-18T01:23:08;1.50;;;0.82;;
43363;SDS011;40636;52.424;-1.948;2023-02-18T01:25:35;2.00;;;1.00;;
43363;SDS011;40636;52.424;-1.948;2023-02-18T01:28:03;4.72;;;0.85;;
43363;SDS011;40636;52.424;-1.948;2023-02-18T01:30:31;2.65;;;0.60;;
43363;SDS011;40636;52.424;-1.948;2023-02-18T01:32:57;1.65;;;0.70;;
43363;SDS011;40636;52.424;-1.948;2023-02-18T01:35:24;3.35;;;0.93;;
43363;SDS011;40636;52.424;-1.948;2023-02-18T01:37:52;4.70;;;1.17;;
43363;SDS011;40636;52.424;-1.948;2023-02-18T01:40:19;3.20;;;1.08;;
43363;SDS011;40636;52.424;-1.948;2023-02-18T01:42:48;4.30;;;1.40;;
43363;SDS011;40636;52.424;-1.948;2023-02-18T01:48:04;3.80;;;1.10;;
43363;SDS011;40636;52.424;-1.948;2023-02-18T01:50:36;3.75;;;1.30;;
43363;SDS011;40636;52.424;-1.948;2023-02-18T01:53:10;4.05;;;1.17;;
43363;SDS011;40636;52.424;-1.948;2023-02-18T01:55:43;1.67;;;1.20;;
43363;SDS011;40636;52.424;-1.948;2023-02-18T01:58:12;2.50;;;1.05;;
43363;SDS011;40636;52.424;-1.948;2023-02-18T02:00:39;6.47;;;1.65;;
43363;SDS011;40636;52.424;-1.948;2023-02-18T02:03:06;6.25;;;1.60;;
43363;SDS011;40636;52.424;-1.948;2023-02-18T02:05:33;8.05;;;1.92;;
43363;SDS011;40636;52.424;-1.948;2023-02-18T02:08:00;6.25;;;1.80;;
43363;SDS011;40636;52.424;-1.948;2023-02-18T02:10:40;5.57;;;1.45;;
43363;SDS011;40636;52.424;-1.948;2023-02-18T02:13:26;5.68;;;1.38;;
43363;SDS011;40636;52.424;-1.948;2023-02-18T02:16:21;8.45;;;1.10;;
43363;SDS011;40636;52.424;-1.948;2023-02-18T02:18:58;6.35;;;1.52;;
43363;SDS011;40636;52.424;-1.948;2023-02-18T02:25:12;7.50;;;1.23;;
43363;SDS011;40636;52.424;-1.948;2023-02-18T02:36:52;2.15;;;1.08;;
43363;SDS011;40636;52.424;-1.948;2023-02-18T02:39:24;5.18;;;1.63;;
43363;SDS011;40636;52.424;-1.948;2023-02-18T02:42:04;6.30;;;1.50;;
43363;SDS011;40636;52.424;-1.948;2023-02-18T02:44:38;7.82;;;2.28;;
43363;SDS011;40636;52.424;-1.948;2023-02-18T02:47:18;5.85;;;1.65;;
43363;SDS011;40636;52.424;-1.948;2023-02-18T02:50:03;3.05;;;1.10;;
43363;SDS011;40636;52.424;-1.948;2023-02-18T02:52:43;5.72;;;1.05;;
43363;SDS011;40636;52.424;-1.948;2023-02-18T02:55:17;5.38;;;1.70;;
43363;SDS011;40636;52.424;-1.948;2023-02-18T03:00:14;2.97;;;1.63;;
43363;SDS011;40636;52.424;-1.948;2023-02-18T03:02:55;3.78;;;1.42;;
43363;SDS011;40636;52.424;-1.948;2023-02-18T03:11:26;3.92;;;1.42;;
43363;SDS011;40636;52.424;-1.948;2023-02-18T03:14:09;5.65;;;1.70;;
43363;SDS011;40636;52.424;-1.948;2023-02-18T03:16:48;10.30;;;1.60;;
43363;SDS011;40636;52.424;-1.948;2023-02-18T03:19:23;9.40;;;1.40;;
43363;SDS011;40636;52.424;-1.948;2023-02-18T03:21:55;5.82;;;1.38;;
43363;SDS011;40636;52.424;-1.948;2023-02-18T03:24:26;3.47;;;1.40;;
43363;SDS011;40636;52.424;-1.948;2023-02-18T03:26:59;5.22;;;1.80;;
43363;SDS011;40636;52.424;-1.948;2023-02-18T03:29:33;3.88;;;1.50;;
43363;SDS011;40636;52.424;-1.948;2023-02-18T03:32:02;7.38;;;1.50;;
43363;SDS011;40636;52.424;-1.948;2023-02-18T03:34:33;3.67;;;1.25;;
43363;SDS011;40636;52.424;-1.948;2023-02-18T03:37:05;9.48;;;2.67;;
43363;SDS011;40636;52.424;-1.948;2023-02-18T03:39:35;9.40;;;1.52;;
43363;SDS011;40636;52.424;-1.948;2023-02-18T03:42:04;5.88;;;1.50;;
43363;SDS011;40636;52.424;-1.948;2023-02-18T03:44:31;4.63;;;1.35;;
43363;SDS011;40636;52.424;-1.948;2023-02-18T03:46:58;3.05;;;1.10;;
43363;SDS011;40636;52.424;-1.948;2023-02-18T03:49:25;4.63;;;1.05;;
43363;SDS011;40636;52.424;-1.948;2023-02-18T03:51:52;4.03;;;1.23;;
43363;SDS011;40636;52.424;-1.948;2023-02-18T03:54:18;6.63;;;1.25;;
43363;SDS011;40636;52.424;-1.948;2023-02-18T03:56:45;3.13;;;1.17;;
43363;SDS011;40636;52.424;-1.948;2023-02-18T03:59:12;3.70;;;1.20;;
43363;SDS011;40636;52.424;-1.948;2023-02-18T04:01:39;2.70;;;1.23;;
43363;SDS011;40636;52.424;-1.948;2023-02-18T04:04:05;1.23;;;0.98;;
43363;SDS011;40636;52.424;-1.948;2023-02-18T04:06:32;6.22;;;1.23;;
43363;SDS011;40636;52.424;-1.948;2023-02-18T04:08:59;5.07;;;1.15;;
43363;SDS011;40636;52.424;-1.948;2023-02-18T04:11:25;5.28;;;1.23;;
43363;SDS011;40636;52.424;-1.948;2023-02-18T04:13:52;5.65;;;1.60;;
43363;SDS011;40636;52.424;-1.948;2023-02-18T04:16:19;12.20;;;1.48;;
43363;SDS011;40636;52.424;-1.948;2023-02-18T04:18:45;5.72;;;1.00;;
43363;SDS011;40636;52.424;-1.948;2023-02-18T04:21:12;4.88;;;0.98;;
43363;SDS011;40636;52.424;-1.948;2023-02-18T04:23:39;6.30;;;1.05;;
43363;SDS011;40636;52.424;-1.948;2023-02-18T04:26:05;3.60;;;1.00;;
43363;SDS011;40636;52.424;-1.948;2023-02-18T04:28:32;5.30;;;1.10;;
43363;SDS011;40636;52.424;-1.948;2023-02-18T04:30:59;1.75;;;0.88;;
43363;SDS011;40636;52.424;-1.948;2023-02-18T04:33:26;4.07;;;1.20;;
43363;SDS011;40636;52.424;-1.948;2023-02-18T04:35:52;4.70;;;1.20;;
43363;SDS011;40636;52.424;-1.948;2023-02-18T04:38:19;6.63;;;1.27;;
43363;SDS011;40636;52.424;-1.948;2023-02-18T04:40:46;1.85;;;1.10;;
43363;SDS011;40636;52.424;-1.948;2023-02-18T04:43:13;1.75;;;0.90;;
43363;SDS011;40636;52.424;-1.948;2023-02-18T04:45:39;4.40;;;1.33;;
43363;SDS011;40636;52.424;-1.948;2023-02-18T04:48:06;2.42;;;1.00;;
43363;SDS011;40636;52.424;-1.948;2023-02-18T04:50:33;1.45;;;0.60;;
43363;SDS011;40636;52.424;-1.948;2023-02-18T04:53:00;3.97;;;0.93;;
43363;SDS011;40636;52.424;-1.948;2023-02-18T04:55:27;2.15;;;0.68;;
43363;SDS011;40636;52.424;-1.948;2023-02-18T04:57:53;1.00;;;0.60;;
43363;SDS011;40636;52.424;-1.948;2023-02-18T05:00:20;0.63;;;0.63;;
43363;SDS011;40636;52.424;-1.948;2023-02-18T05:02:47;1.65;;;0.60;;
43363;SDS011;40636;52.424;-1.948;2023-02-18T05:05:14;1.42;;;0.70;;
43363;SDS011;40636;52.424;-1.948;2023-02-18T05:07:41;0.70;;;0.57;;
43363;SDS011;40636;52.424;-1.948;2023-02-18T05:10:09;2.50;;;0.80;;
43363;SDS011;40636;52.424;-1.948;2023-02-18T05:12:36;2.13;;;0.73;;
43363;SDS011;40636;52.424;-1.948;2023-02-18T05:15:03;1.35;;;0.38;;
43363;SDS011;40636;52.424;-1.948;2023-02-18T05:17:31;0.88;;;0.88;;
43363;SDS011;40636;52.424;-1.948;2023-02-18T05:19:58;2.38;;;0.50;;
43363;SDS011;40636;52.424;-1.948;2023-02-18T05:22:24;2.05;;;0.30;;
43363;SDS011;40636;52.424;-1.948;2023-02-18T05:24:51;0.93;;;0.43;;
43363;SDS011;40636;52.424;-1.948;2023-02-18T05:27:18;2.03;;;0.50;;
43363;SDS011;40636;52.424;-1.948;2023-02-18T05:29:44;1.95;;;0.45;;
43363;SDS011;40636;52.424;-1.948;2023-02-18T05:32:11;1.00;;;0.38;;
43363;SDS011;40636;52.424;-1.948;2023-02-18T05:34:38;0.60;;;0.32;;
43363;SDS011;40636;52.424;-1.948;2023-02-18T05:37:05;0.77;;;0.40;;
43363;SDS011;40636;52.424;-1.948;2023-02-18T05:39:31;0.20;;;0.20;;
43363;SDS011;40636;52.424;-1.948;2023-02-18T05:41:58;1.88;;;0.63;;
43363;SDS011;40636;52.424;-1.948;2023-02-18T05:44:24;0.35;;;0.35;;
43363;SDS011;40636;52.424;-1.948;2023-02-18T05:46:59;3.65;;;0.68;;
43363;SDS011;40636;52.424;-1.948;2023-02-18T05:49:28;2.47;;;0.50;;
43363;SDS011;40636;52.424;-1.948;2023-02-18T05:51:56;0.38;;;0.38;;
43363;SDS011;40636;52.424;-1.948;2023-02-18T05:54:23;2.30;;;0.38;;
43363;SDS011;40636;52.424;-1.948;2023-02-18T05:56:50;0.40;;;0.40;;
43363;SDS011;40636;52.424;-1.948;2023-02-18T05:59:17;0.65;;;0.63;;
43363;SDS011;40636;52.424;-1.948;2023-02-18T06:01:44;0.38;;;0.38;;
43363;SDS011;40636;52.424;-1.948;2023-02-18T06:04:12;0.47;;;0.47;;
43363;SDS011;40636;52.424;-1.948;2023-02-18T06:06:39;0.75;;;0.55;;
43363;SDS011;40636;52.424;-1.948;2023-02-18T06:09:06;1.80;;;1.13;;
43363;SDS011;40636;52.424;-1.948;2023-02-18T06:11:33;0.40;;;0.40;;
43363;SDS011;40636;52.424;-1.948;2023-02-18T06:14:00;4.63;;;0.63;;
43363;SDS011;40636;52.424;-1.948;2023-02-18T06:16:27;0.40;;;0.40;;
43363;SDS011;40636;52.424;-1.948;2023-02-18T06:18:54;0.40;;;0.40;;
43363;SDS011;40636;52.424;-1.948;2023-02-18T06:21:21;0.70;;;0.45;;
43363;SDS011;40636;52.424;-1.948;2023-02-18T06:23:48;0.88;;;0.40;;
43363;SDS011;40636;52.424;-1.948;2023-02-18T06:26:14;0.30;;;0.30;;
43363;SDS011;40636;52.424;-1.948;2023-02-18T06:28:41;0.60;;;0.60;;
43363;SDS011;40636;52.424;-1.948;2023-02-18T06:31:07;0.55;;;0.40;;
43363;SDS011;40636;52.424;-1.948;2023-02-18T06:33:34;0.40;;;0.40;;
43363;SDS011;40636;52.424;-1.948;2023-02-18T06:36:02;0.30;;;0.30;;
43363;SDS011;40636;52.424;-1.948;2023-02-18T06:38:35;2.05;;;0.40;;
43363;SDS011;40636;52.424;-1.948;2023-02-18T06:41:01;2.47;;;0.47;;
43363;SDS011;40636;52.424;-1.948;2023-02-18T06:43:29;0.25;;;0.25;;
43363;SDS011;40636;52.424;-1.948;2023-02-18T06:45:55;0.73;;;0.30;;
43363;SDS011;40636;52.424;-1.948;2023-02-18T06:48:22;1.65;;;1.55;;
43363;SDS011;40636;52.424;-1.948;2023-02-18T06:50:49;0.43;;;0.40;;
43363;SDS011;40636;52.424;-1.948;2023-02-18T06:53:16;0.75;;;0.60;;
43363;SDS011;40636;52.424;-1.948;2023-02-18T06:55:43;0.50;;;0.40;;
43363;SDS011;40636;52.424;-1.948;2023-02-18T06:58:11;0.30;;;0.30;;
43363;SDS011;40636;52.424;-1.948;2023-02-18T07:00:39;0.65;;;0.40;;
43363;SDS011;40636;52.424;-1.948;2023-02-18T07:03:06;0.43;;;0.43;;
43363;SDS011;40636;52.424;-1.948;2023-02-18T07:05:33;0.40;;;0.40;;
43363;SDS011;40636;52.424;-1.948;2023-02-18T07:08:00;0.77;;;0.50;;
43363;SDS011;40636;52.424;-1.948;2023-02-18T07:10:27;0.60;;;0.60;;
43363;SDS011;40636;52.424;-1.948;2023-02-18T07:12:54;0.55;;;0.55;;
43363;SDS011;40636;52.424;-1.948;2023-02-18T07:15:20;1.85;;;0.30;;
43363;SDS011;40636;52.424;-1.948;2023-02-18T07:17:49;0.60;;;0.60;;
43363;SDS011;40636;52.424;-1.948;2023-02-18T07:20:17;2.30;;;0.52;;
43363;SDS011;40636;52.424;-1.948;2023-02-18T07:22:45;1.02;;;1.00;;
43363;SDS011;40636;52.424;-1.948;2023-02-18T07:25:12;0.60;;;0.60;;
43363;SDS011;40636;52.424;-1.948;2023-02-18T07:27:39;1.45;;;0.82;;
43363;SDS011;40636;52.424;-1.948;2023-02-18T07:30:06;2.25;;;0.73;;
43363;SDS011;40636;52.424;-1.948;2023-02-18T07:32:34;0.95;;;0.82;;
43363;SDS011;40636;52.424;-1.948;2023-02-18T07:35:01;1.02;;;0.93;;
43363;SDS011;40636;52.424;-1.948;2023-02-18T07:37:29;0.73;;;0.73;;
43363;SDS011;40636;52.424;-1.948;2023-02-18T07:39:55;1.25;;;0.50;;
43363;SDS011;40636;52.424;-1.948;2023-02-18T07:42:22;0.63;;;0.52;;
43363;SDS011;40636;52.424;-1.948;2023-02-18T07:44:49;0.60;;;0.60;;
43363;SDS011;40636;52.424;-1.948;2023-02-18T07:47:16;0.75;;;0.75;;
43363;SDS011;40636;52.424;-1.948;2023-02-18T07:49:45;0.50;;;0.50;;
43363;SDS011;40636;52.424;-1.948;2023-02-18T07:52:14;1.13;;;0.90;;
43363;SDS011;40636;52.424;-1.948;2023-02-18T07:54:41;0.80;;;0.80;;
43363;SDS011;40636;52.424;-1.948;2023-02-18T07:57:07;0.63;;;0.63;;
43363;SDS011;40636;52.424;-1.948;2023-02-18T07:59:34;1.55;;;0.63;;
43363;SDS011;40636;52.424;-1.948;2023-02-18T08:02:01;0.75;;;0.60;;
43363;SDS011;40636;52.424;-1.948;2023-02-18T08:04:28;0.60;;;0.60;;
43363;SDS011;40636;52.424;-1.948;2023-02-18T08:06:55;0.60;;;0.60;;
43363;SDS011;40636;52.424;-1.948;2023-02-18T08:09:22;0.60;;;0.60;;
43363;SDS011;40636;52.424;-1.948;2023-02-18T08:11:48;0.68;;;0.68;;
43363;SDS011;40636;52.424;-1.948;2023-02-18T08:14:15;1.20;;;1.10;;
43363;SDS011;40636;52.424;-1.948;2023-02-18T08:16:42;1.00;;;0.80;;
43363;SDS011;40636;52.424;-1.948;2023-02-18T08:19:09;0.70;;;0.70;;
43363;SDS011;40636;52.424;-1.948;2023-02-18T08:21:35;1.88;;;0.85;;
43363;SDS011;40636;52.424;-1.948;2023-02-18T08:24:02;1.00;;;0.80;;
43363;SDS011;40636;52.424;-1.948;2023-02-18T08:26:29;1.17;;;0.98;;
43363;SDS011;40636;52.424;-1.948;2023-02-18T08:28:56;0.73;;;0.73;;
43363;SDS011;40636;52.424;-1.948;2023-02-18T08:31:23;2.20;;;0.90;;
43363;SDS011;40636;52.424;-1.948;2023-02-18T08:33:52;0.93;;;0.85;;
43363;SDS011;40636;52.424;-1.948;2023-02-18T08:36:20;0.90;;;0.90;;
43363;SDS011;40636;52.424;-1.948;2023-02-18T08:38:48;0.75;;;0.75;;
43363;SDS011;40636;52.424;-1.948;2023-02-18T08:41:15;0.80;;;0.80;;
43363;SDS011;40636;52.424;-1.948;2023-02-18T08:43:44;0.40;;;0.40;;
43363;SDS011;40636;52.424;-1.948;2023-02-18T08:46:12;2.85;;;0.68;;
43363;SDS011;40636;52.424;-1.948;2023-02-18T08:48:42;0.40;;;0.40;;
43363;SDS011;40636;52.424;-1.948;2023-02-18T08:51:10;0.30;;;0.30;;
43363;SDS011;40636;52.424;-1.948;2023-02-18T08:53:39;1.02;;;0.82;;
43363;SDS011;40636;52.424;-1.948;2023-02-18T08:56:06;0.25;;;0.25;;
43363;SDS011;40636;52.424;-1.948;2023-02-18T08:58:35;0.22;;;0.20;;
43363;SDS011;40636;52.424;-1.948;2023-02-18T09:01:06;1.05;;;1.05;;
43363;SDS011;40636;52.424;-1.948;2023-02-18T09:03:35;0.75;;;0.47;;
43363;SDS011;40636;52.424;-1.948;2023-02-18T09:06:02;1.95;;;0.55;;
43363;SDS011;40636;52.424;-1.948;2023-02-18T09:08:29;0.35;;;0.30;;
43363;SDS011;40636;52.424;-1.948;2023-02-18T09:10:56;0.30;;;0.30;;
43363;SDS011;40636;52.424;-1.948;2023-02-18T09:13:24;0.40;;;0.40;;
43363;SDS011;40636;52.424;-1.948;2023-02-18T09:16:02;0.50;;;0.50;;
43363;SDS011;40636;52.424;-1.948;2023-02-18T09:18:31;1.63;;;0.80;;
43363;SDS011;40636;52.424;-1.948;2023-02-18T09:21:00;1.10;;;1.05;;
43363;SDS011;40636;52.424;-1.948;2023-02-18T09:23:28;1.63;;;0.50;;
43363;SDS011;40636;52.424;-1.948;2023-02-18T09:25:56;0.43;;;0.43;;
43363;SDS011;40636;52.424;-1.948;2023-02-18T09:28:23;0.40;;;0.40;;
43363;SDS011;40636;52.424;-1.948;2023-02-18T09:30:50;0.30;;;0.30;;
43363;SDS011;40636;52.424;-1.948;2023-02-18T09:33:18;0.20;;;0.20;;
43363;SDS011;40636;52.424;-1.948;2023-02-18T09:35:44;1.05;;;0.30;;
43363;SDS011;40636;52.424;-1.948;2023-02-18T09:38:13;0.57;;;0.55;;
43363;SDS011;40636;52.424;-1.948;2023-02-18T09:40:43;3.33;;;1.10;;
43363;SDS011;40636;52.424;-1.948;2023-02-18T09:46:01;1.08;;;0.20;;
43363;SDS011;40636;52.424;-1.948;2023-02-18T09:48:30;1.42;;;0.40;;
43363;SDS011;40636;52.424;-1.948;2023-02-18T09:51:00;0.40;;;0.38;;
43363;SDS011;40636;52.424;-1.948;2023-02-18T09:53:27;0.30;;;0.30;;
43363;SDS011;40636;52.424;-1.948;2023-02-18T09:55:54;1.00;;;0.43;;
43363;SDS011;40636;52.424;-1.948;2023-02-18T09:58:24;0.43;;;0.28;;
43363;SDS011;40636;52.424;-1.948;2023-02-18T10:01:13;0.25;;;0.25;;
43363;SDS011;40636;52.424;-1.948;2023-02-18T10:03:46;0.50;;;0.40;;
43363;SDS011;40636;52.424;-1.948;2023-02-18T10:08:52;0.50;;;0.30;;
43363;SDS011;40636;52.424;-1.948;2023-02-18T10:11:30;2.13;;;0.40;;
43363;SDS011;40636;52.424;-1.948;2023-02-18T10:14:00;2.90;;;0.50;;
43363;SDS011;40636;52.424;-1.948;2023-02-18T10:16:28;2.15;;;0.55;;
43363;SDS011;40636;52.424;-1.948;2023-02-18T10:18:56;0.65;;;0.50;;
43363;SDS011;40636;52.424;-1.948;2023-02-18T10:21:27;0.68;;;0.40;;
43363;SDS011;40636;52.424;-1.948;2023-02-18T10:24:05;2.13;;;0.32;;
43363;SDS011;40636;52.424;-1.948;2023-02-18T10:26:44;2.30;;;0.40;;
43363;SDS011;40636;52.424;-1.948;2023-02-18T10:29:12;2.45;;;0.88;;
43363;SDS011;40636;52.424;-1.948;2023-02-18T10:34:48;0.35;;;0.35;;
43363;SDS011;40636;52.424;-1.948;2023-02-18T10:37:39;5.68;;;0.47;;
43363;SDS011;40636;52.424;-1.948;2023-02-18T10:43:15;1.00;;;0.32;;
43363;SDS011;40636;52.424;-1.948;2023-02-18T10:46:00;0.30;;;0.30;;
43363;SDS011;40636;52.424;-1.948;2023-02-18T10:48:41;1.00;;;0.45;;
43363;SDS011;40636;52.424;-1.948;2023-02-18T10:51:30;2.17;;;0.40;;
43363;SDS011;40636;52.424;-1.948;2023-02-18T10:53:59;0.25;;;0.20;;
43363;SDS011;40636;52.424;-1.948;2023-02-18T11:01:40;2.92;;;0.50;;
43363;SDS011;40636;52.424;-1.948;2023-02-18T11:04:14;0.40;;;0.30;;
43363;SDS011;40636;52.424;-1.948;2023-02-18T11:06:44;2.28;;;0.40;;
43363;SDS011;40636;52.424;-1.948;2023-02-18T11:10:07;0.20;;;0.20;;
43363;SDS011;40636;52.424;-1.948;2023-02-18T11:14:46;0.20;;;0.20;;
43363;SDS011;40636;52.424;-1.948;2023-02-18T11:17:31;0.90;;;0.22;;
43363;SDS011;40636;52.424;-1.948;2023-02-18T11:20:12;0.20;;;0.20;;
43363;SDS011;40636;52.424;-1.948;2023-02-18T11:22:44;0.20;;;0.20;;
43363;SDS011;40636;52.424;-1.948;2023-02-18T11:25:18;0.10;;;0.10;;
43363;SDS011;40636;52.424;-1.948;2023-02-18T11:27:51;0.20;;;0.20;;
43363;SDS011;40636;52.424;-1.948;2023-02-18T11:30:34;0.30;;;0.30;;
43363;SDS011;40636;52.424;-1.948;2023-02-18T11:33:08;0.30;;;0.30;;
43363;SDS011;40636;52.424;-1.948;2023-02-18T11:35:51;0.17;;;0.17;;
43363;SDS011;40636;52.424;-1.948;2023-02-18T11:38:25;0.30;;;0.30;;
43363;SDS011;40636;52.424;-1.948;2023-02-18T11:40:55;0.20;;;0.20;;
43363;SDS011;40636;52.424;-1.948;2023-02-18T11:43:29;3.30;;;0.50;;
43363;SDS011;40636;52.424;-1.948;2023-02-18T11:46:15;0.45;;;0.32;;
43363;SDS011;40636;52.424;-1.948;2023-02-18T11:48:48;0.20;;;0.20;;
43363;SDS011;40636;52.424;-1.948;2023-02-18T11:54:26;0.70;;;0.50;;
43363;SDS011;40636;52.424;-1.948;2023-02-18T11:57:04;2.92;;;0.65;;
43363;SDS011;40636;52.424;-1.948;2023-02-18T11:59:39;0.40;;;0.40;;
43363;SDS011;40636;52.424;-1.948;2023-02-18T12:04:57;1.63;;;0.50;;
43363;SDS011;40636;52.424;-1.948;2023-02-18T12:07:28;0.40;;;0.40;;
43363;SDS011;40636;52.424;-1.948;2023-02-18T12:10:04;2.28;;;0.60;;
43363;SDS011;40636;52.424;-1.948;2023-02-18T12:12:49;0.60;;;0.50;;
43363;SDS011;40636;52.424;-1.948;2023-02-18T12:15:23;2.65;;;0.50;;
43363;SDS011;40636;52.424;-1.948;2023-02-18T12:36:37;4.30;;;0.50;;
43363;SDS011;40636;52.424;-1.948;2023-02-18T12:45:09;0.65;;;0.43;;
43363;SDS011;40636;52.424;-1.948;2023-02-18T12:53:47;1.85;;;0.45;;
43363;SDS011;40636;52.424;-1.948;2023-02-18T12:56:26;1.52;;;0.50;;
43363;SDS011;40636;52.424;-1.948;2023-02-18T13:05:10;2.28;;;0.70;;
43363;SDS011;40636;52.424;-1.948;2023-02-18T13:13:41;0.30;;;0.30;;
43363;SDS011;40636;52.424;-1.948;2023-02-18T13:16:16;1.55;;;0.73;;
43363;SDS011;40636;52.424;-1.948;2023-02-18T13:21:35;1.42;;;0.55;;
43363;SDS011;40636;52.424;-1.948;2023-02-18T13:24:11;2.03;;;0.60;;
43363;SDS011;40636;52.424;-1.948;2023-02-18T13:26:43;0.55;;;0.55;;
43363;SDS011;40636;52.424;-1.948;2023-02-18T13:34:49;2.85;;;0.50;;
43363;SDS011;40636;52.424;-1.948;2023-02-18T13:39:57;1.23;;;0.60;;
43363;SDS011;40636;52.424;-1.948;2023-02-18T13:47:34;0.35;;;0.30;;
43363;SDS011;40636;52.424;-1.948;2023-02-18T13:52:48;2.70;;;0.65;;
43363;SDS011;40636;52.424;-1.948;2023-02-18T13:55:19;2.90;;;0.50;;
43363;SDS011;40636;52.424;-1.948;2023-02-18T13:57:50;0.50;;;0.50;;
43363;SDS011;40636;52.424;-1.948;2023-02-18T14:00:21;0.88;;;0.55;;
43363;SDS011;40636;52.424;-1.948;2023-02-18T14:03:00;0.50;;;0.50;;
43363;SDS011;40636;52.424;-1.948;2023-02-18T14:05:45;5.28;;;0.98;;
43363;SDS011;40636;52.424;-1.948;2023-02-18T14:08:12;1.08;;;0.57;;
43363;SDS011;40636;52.424;-1.948;2023-02-18T14:13:37;1.50;;;0.50;;
43363;SDS011;40636;52.424;-1.948;2023-02-18T14:16:09;0.60;;;0.60;;
43363;SDS011;40636;52.424;-1.948;2023-02-18T14:23:55;0.47;;;0.32;;
43363;SDS011;40636;52.424;-1.948;2023-02-18T14:26:30;0.45;;;0.35;;
43363;SDS011;40636;52.424;-1.948;2023-02-18T14:29:00;2.40;;;1.27;;
43363;SDS011;40636;52.424;-1.948;2023-02-18T14:31:33;2.63;;;0.60;;
43363;SDS011;40636;52.424;-1.948;2023-02-18T14:34:26;1.30;;;0.55;;
43363;SDS011;40636;52.424;-1.948;2023-02-18T14:39:40;0.73;;;0.40;;
43363;SDS011;40636;52.424;-1.948;2023-02-18T14:42:38;0.95;;;0.38;;
43363;SDS011;40636;52.424;-1.948;2023-02-18T14:45:27;2.60;;;0.70;;
43363;SDS011;40636;52.424;-1.948;2023-02-18T14:50:23;1.73;;;1.02;;
43363;SDS011;40636;52.424;-1.948;2023-02-18T14:52:53;3.40;;;0.85;;
43363;SDS011;40636;52.424;-1.948;2023-02-18T14:55:25;1.25;;;0.77;;
43363;SDS011;40636;52.424;-1.948;2023-02-18T14:58:00;2.65;;;0.90;;
43363;SDS011;40636;52.424;-1.948;2023-02-18T15:00:38;6.75;;;0.93;;
43363;SDS011;40636;52.424;-1.948;2023-02-18T15:03:14;0.68;;;0.60;;
43363;SDS011;40636;52.424;-1.948;2023-02-18T15:05:43;2.20;;;0.90;;
43363;SDS011;40636;52.424;-1.948;2023-02-18T15:13:27;1.70;;;0.47;;
43363;SDS011;40636;52.424;-1.948;2023-02-18T15:15:56;1.13;;;0.93;;
43363;SDS011;40636;52.424;-1.948;2023-02-18T15:21:05;0.98;;;0.40;;
43363;SDS011;40636;52.424;-1.948;2023-02-18T15:23:35;1.23;;;0.40;;
43363;SDS011;40636;52.424;-1.948;2023-02-18T15:26:04;2.28;;;0.40;;
43363;SDS011;40636;52.424;-1.948;2023-02-18T15:28:38;0.70;;;0.45;;
43363;SDS011;40636;52.424;-1.948;2023-02-18T15:31:09;0.30;;;0.30;;
43363;SDS011;40636;52.424;-1.948;2023-02-18T15:33:45;1.40;;;0.60;;
43363;SDS011;40636;52.424;-1.948;2023-02-18T15:36:13;5.05;;;0.60;;
43363;SDS011;40636;52.424;-1.948;2023-02-18T15:38:40;2.85;;;0.40;;
43363;SDS011;40636;52.424;-1.948;2023-02-18T15:41:13;0.65;;;0.40;;
43363;SDS011;40636;52.424;-1.948;2023-02-18T15:43:52;0.82;;;0.57;;
43363;SDS011;40636;52.424;-1.948;2023-02-18T15:46:19;1.20;;;0.50;;
43363;SDS011;40636;52.424;-1.948;2023-02-18T15:48:49;2.05;;;0.60;;
43363;SDS011;40636;52.424;-1.948;2023-02-18T15:51:20;2.83;;;0.57;;
43363;SDS011;40636;52.424;-1.948;2023-02-18T15:53:51;1.08;;;0.47;;
43363;SDS011;40636;52.424;-1.948;2023-02-18T15:59:18;1.05;;;0.63;;
43363;SDS011;40636;52.424;-1.948;2023-02-18T16:01:48;0.40;;;0.40;;
43363;SDS011;40636;52.424;-1.948;2023-02-18T16:04:20;2.65;;;0.60;;
43363;SDS011;40636;52.424;-1.948;2023-02-18T16:06:49;1.27;;;0.88;;
43363;SDS011;40636;52.424;-1.948;2023-02-18T16:09:33;1.38;;;0.57;;
43363;SDS011;40636;52.424;-1.948;2023-02-18T16:12:02;2.28;;;1.08;;
43363;SDS011;40636;52.424;-1.948;2023-02-18T16:14:45;1.85;;;0.88;;
43363;SDS011;40636;52.424;-1.948;2023-02-18T16:17:14;0.68;;;0.30;;
43363;SDS011;40636;52.424;-1.948;2023-02-18T16:19:47;2.28;;;0.55;;
43363;SDS011;40636;52.424;-1.948;2023-02-18T16:24:58;1.63;;;0.50;;
43363;SDS011;40636;52.424;-1.948;2023-02-18T16:27:34;4.30;;;0.63;;
43363;SDS011;40636;52.424;-1.948;2023-02-18T16:30:13;4.90;;;0.70;;
43363;SDS011;40636;52.424;-1.948;2023-02-18T16:32:45;3.17;;;2.88;;
43363;SDS011;40636;52.424;-1.948;2023-02-18T16:35:12;0.75;;;0.60;;
43363;SDS011;40636;52.424;-1.948;2023-02-18T16:37:40;5.07;;;1.25;;
43363;SDS011;40636;52.424;-1.948;2023-02-18T16:40:20;1.83;;;0.70;;
43363;SDS011;40636;52.424;-1.948;2023-02-18T16:42:52;3.80;;;0.93;;
43363;SDS011;40636;52.424;-1.948;2023-02-18T16:45:20;5.05;;;0.70;;
43363;SDS011;40636;52.424;-1.948;2023-02-18T16:47:56;6.43;;;0.70;;
43363;SDS011;40636;52.424;-1.948;2023-02-18T16:50:23;3.03;;;1.30;;
43363;SDS011;40636;52.424;-1.948;2023-02-18T16:52:50;1.50;;;0.77;;
43363;SDS011;40636;52.424;-1.948;2023-02-18T16:55:18;4.18;;;0.68;;
43363;SDS011;40636;52.424;-1.948;2023-02-18T16:57:46;6.60;;;0.98;;
43363;SDS011;40636;52.424;-1.948;2023-02-18T17:00:14;2.80;;;0.85;;
43363;SDS011;40636;52.424;-1.948;2023-02-18T17:02:43;2.15;;;0.75;;
43363;SDS011;40636;52.424;-1.948;2023-02-18T17:05:18;2.13;;;0.93;;
43363;SDS011;40636;52.424;-1.948;2023-02-18T17:10:38;1.33;;;0.57;;
43363;SDS011;40636;52.424;-1.948;2023-02-18T17:13:04;1.35;;;0.82;;